10°C Temp
9°C Dewpoint
% Humidity
Temperature
5 KM/H
3 MPH
3 KTS
20°
North North
East

Wind Speed
Clear
Conditions
Pressure 1017.92 (hPa) - 30.06 (in)
Visibility 6.2 (mi) - 10.0 (km)

Current Conditions
YPPH
Location 20(km)
Metar :YPPH 141500Z 02003KT CAVOK 10/09 Q1018 NOSIG
Tue 14th July 23:00 pm

Airport
  Metar Aviation API Data Provided by https://www.checkwx.com/ PHP scripts by weather34.com ©2020